sensor_id;sensor_type;location;lat;lon;timestamp;P1;durP1;ratioP1;P2;durP2;ratioP2
20122;SDS011;10222;50.848;4.336;2022-10-13T00:01:13;6.53;;;3.17;;
20122;SDS011;10222;50.848;4.336;2022-10-13T00:03:40;5.97;;;3.07;;
20122;SDS011;10222;50.848;4.336;2022-10-13T00:06:07;5.50;;;3.00;;
20122;SDS011;10222;50.848;4.336;2022-10-13T00:08:34;6.07;;;2.80;;
20122;SDS011;10222;50.848;4.336;2022-10-13T00:11:01;4.77;;;2.73;;
20122;SDS011;10222;50.848;4.336;2022-10-13T00:13:33;5.13;;;2.97;;
20122;SDS011;10222;50.848;4.336;2022-10-13T00:16:00;7.43;;;3.00;;
20122;SDS011;10222;50.848;4.336;2022-10-13T00:18:26;5.43;;;2.70;;
20122;SDS011;10222;50.848;4.336;2022-10-13T00:20:52;5.07;;;3.10;;
20122;SDS011;10222;50.848;4.336;2022-10-13T00:23:18;4.03;;;2.83;;
20122;SDS011;10222;50.848;4.336;2022-10-13T00:25:45;4.20;;;2.60;;
20122;SDS011;10222;50.848;4.336;2022-10-13T00:28:12;4.97;;;3.23;;
20122;SDS011;10222;50.848;4.336;2022-10-13T00:30:38;5.30;;;3.03;;
20122;SDS011;10222;50.848;4.336;2022-10-13T00:33:05;5.90;;;3.37;;
20122;SDS011;10222;50.848;4.336;2022-10-13T00:35:31;5.27;;;3.10;;
20122;SDS011;10222;50.848;4.336;2022-10-13T00:37:57;7.53;;;3.97;;
20122;SDS011;10222;50.848;4.336;2022-10-13T00:40:23;7.20;;;3.83;;
20122;SDS011;10222;50.848;4.336;2022-10-13T00:42:49;7.50;;;3.77;;
20122;SDS011;10222;50.848;4.336;2022-10-13T00:45:19;6.93;;;3.50;;
20122;SDS011;10222;50.848;4.336;2022-10-13T00:47:47;5.30;;;3.10;;
20122;SDS011;10222;50.848;4.336;2022-10-13T00:50:19;7.23;;;3.57;;
20122;SDS011;10222;50.848;4.336;2022-10-13T00:52:45;5.67;;;3.57;;
20122;SDS011;10222;50.848;4.336;2022-10-13T00:55:12;7.63;;;3.30;;
20122;SDS011;10222;50.848;4.336;2022-10-13T00:57:42;5.87;;;3.50;;
20122;SDS011;10222;50.848;4.336;2022-10-13T01:00:09;5.93;;;2.97;;
20122;SDS011;10222;50.848;4.336;2022-10-13T01:02:36;9.57;;;3.80;;
20122;SDS011;10222;50.848;4.336;2022-10-13T01:05:03;4.80;;;2.80;;
20122;SDS011;10222;50.848;4.336;2022-10-13T01:07:29;7.27;;;3.50;;
20122;SDS011;10222;50.848;4.336;2022-10-13T01:09:55;4.80;;;3.00;;
20122;SDS011;10222;50.848;4.336;2022-10-13T01:15:10;5.90;;;3.23;;
20122;SDS011;10222;50.848;4.336;2022-10-13T01:20:24;6.87;;;3.40;;
20122;SDS011;10222;50.848;4.336;2022-10-13T01:31:24;8.47;;;4.93;;
20122;SDS011;10222;50.848;4.336;2022-10-13T01:34:05;9.70;;;4.70;;
20122;SDS011;10222;50.848;4.336;2022-10-13T01:36:38;8.23;;;5.03;;
20122;SDS011;10222;50.848;4.336;2022-10-13T01:41:33;8.57;;;4.57;;
20122;SDS011;10222;50.848;4.336;2022-10-13T01:46:37;18.07;;;9.93;;
20122;SDS011;10222;50.848;4.336;2022-10-13T01:49:04;21.60;;;11.70;;
20122;SDS011;10222;50.848;4.336;2022-10-13T01:51:32;20.13;;;12.00;;
20122;SDS011;10222;50.848;4.336;2022-10-13T01:53:58;17.80;;;11.60;;
20122;SDS011;10222;50.848;4.336;2022-10-13T01:56:24;20.30;;;11.80;;
20122;SDS011;10222;50.848;4.336;2022-10-13T01:58:50;20.20;;;11.67;;
20122;SDS011;10222;50.848;4.336;2022-10-13T02:06:18;19.87;;;10.70;;
20122;SDS011;10222;50.848;4.336;2022-10-13T02:11:30;17.23;;;8.50;;
20122;SDS011;10222;50.848;4.336;2022-10-13T02:14:12;14.43;;;6.77;;
20122;SDS011;10222;50.848;4.336;2022-10-13T02:16:41;12.80;;;5.87;;
20122;SDS011;10222;50.848;4.336;2022-10-13T02:19:09;10.43;;;6.40;;
20122;SDS011;10222;50.848;4.336;2022-10-13T02:21:36;13.00;;;6.53;;
20122;SDS011;10222;50.848;4.336;2022-10-13T02:24:03;9.23;;;5.57;;
20122;SDS011;10222;50.848;4.336;2022-10-13T02:26:33;11.73;;;5.13;;
20122;SDS011;10222;50.848;4.336;2022-10-13T02:29:03;12.33;;;5.17;;
20122;SDS011;10222;50.848;4.336;2022-10-13T02:31:31;9.73;;;4.83;;
20122;SDS011;10222;50.848;4.336;2022-10-13T02:33:57;10.00;;;5.10;;
20122;SDS011;10222;50.848;4.336;2022-10-13T02:36:23;7.50;;;4.27;;
20122;SDS011;10222;50.848;4.336;2022-10-13T02:38:49;9.17;;;4.50;;
20122;SDS011;10222;50.848;4.336;2022-10-13T02:41:15;10.93;;;5.40;;
20122;SDS011;10222;50.848;4.336;2022-10-13T02:43:41;7.43;;;4.60;;
20122;SDS011;10222;50.848;4.336;2022-10-13T02:46:07;8.20;;;4.30;;
20122;SDS011;10222;50.848;4.336;2022-10-13T02:48:34;12.10;;;5.57;;
20122;SDS011;10222;50.848;4.336;2022-10-13T02:51:00;8.17;;;5.50;;
20122;SDS011;10222;50.848;4.336;2022-10-13T02:53:26;9.43;;;5.47;;
20122;SDS011;10222;50.848;4.336;2022-10-13T02:55:52;11.43;;;5.03;;
20122;SDS011;10222;50.848;4.336;2022-10-13T02:58:18;9.90;;;4.50;;
20122;SDS011;10222;50.848;4.336;2022-10-13T03:00:44;7.90;;;4.77;;
20122;SDS011;10222;50.848;4.336;2022-10-13T03:03:10;10.23;;;4.07;;
20122;SDS011;10222;50.848;4.336;2022-10-13T03:05:36;12.33;;;5.00;;
20122;SDS011;10222;50.848;4.336;2022-10-13T03:08:02;8.50;;;4.37;;
20122;SDS011;10222;50.848;4.336;2022-10-13T03:10:28;14.03;;;4.77;;
20122;SDS011;10222;50.848;4.336;2022-10-13T03:12:56;9.90;;;4.60;;
20122;SDS011;10222;50.848;4.336;2022-10-13T03:15:22;12.57;;;4.97;;
20122;SDS011;10222;50.848;4.336;2022-10-13T03:17:48;11.83;;;4.93;;
20122;SDS011;10222;50.848;4.336;2022-10-13T03:20:14;8.70;;;4.63;;
20122;SDS011;10222;50.848;4.336;2022-10-13T03:22:40;8.03;;;4.67;;
20122;SDS011;10222;50.848;4.336;2022-10-13T03:25:07;12.33;;;4.10;;
20122;SDS011;10222;50.848;4.336;2022-10-13T03:27:33;8.13;;;4.30;;
20122;SDS011;10222;50.848;4.336;2022-10-13T03:30:00;5.73;;;3.70;;
20122;SDS011;10222;50.848;4.336;2022-10-13T03:32:26;8.77;;;4.87;;
20122;SDS011;10222;50.848;4.336;2022-10-13T03:34:54;8.00;;;4.43;;
20122;SDS011;10222;50.848;4.336;2022-10-13T03:37:21;10.50;;;5.10;;
20122;SDS011;10222;50.848;4.336;2022-10-13T03:39:47;11.77;;;5.37;;
20122;SDS011;10222;50.848;4.336;2022-10-13T03:42:13;9.53;;;4.23;;
20122;SDS011;10222;50.848;4.336;2022-10-13T03:44:39;8.27;;;4.43;;
20122;SDS011;10222;50.848;4.336;2022-10-13T03:47:05;11.47;;;5.30;;
20122;SDS011;10222;50.848;4.336;2022-10-13T03:49:31;8.53;;;4.47;;
20122;SDS011;10222;50.848;4.336;2022-10-13T03:51:57;9.00;;;4.53;;
20122;SDS011;10222;50.848;4.336;2022-10-13T03:54:23;9.93;;;4.90;;
20122;SDS011;10222;50.848;4.336;2022-10-13T03:56:48;11.70;;;4.90;;
20122;SDS011;10222;50.848;4.336;2022-10-13T03:59:18;7.83;;;4.43;;
20122;SDS011;10222;50.848;4.336;2022-10-13T04:01:44;9.00;;;4.43;;
20122;SDS011;10222;50.848;4.336;2022-10-13T04:04:10;12.03;;;4.37;;
20122;SDS011;10222;50.848;4.336;2022-10-13T04:06:36;8.60;;;5.50;;
20122;SDS011;10222;50.848;4.336;2022-10-13T04:09:03;9.87;;;5.00;;
20122;SDS011;10222;50.848;4.336;2022-10-13T04:11:29;7.60;;;4.93;;
20122;SDS011;10222;50.848;4.336;2022-10-13T04:13:56;11.07;;;5.37;;
20122;SDS011;10222;50.848;4.336;2022-10-13T04:16:23;12.63;;;5.27;;
20122;SDS011;10222;50.848;4.336;2022-10-13T04:18:54;9.30;;;4.20;;
20122;SDS011;10222;50.848;4.336;2022-10-13T04:21:20;9.17;;;4.37;;
20122;SDS011;10222;50.848;4.336;2022-10-13T04:23:47;9.30;;;4.40;;
20122;SDS011;10222;50.848;4.336;2022-10-13T04:26:14;9.23;;;4.60;;
20122;SDS011;10222;50.848;4.336;2022-10-13T04:28:40;8.20;;;5.27;;
20122;SDS011;10222;50.848;4.336;2022-10-13T04:31:06;11.97;;;4.80;;
20122;SDS011;10222;50.848;4.336;2022-10-13T04:33:32;10.80;;;5.23;;
20122;SDS011;10222;50.848;4.336;2022-10-13T04:35:58;8.40;;;4.30;;
20122;SDS011;10222;50.848;4.336;2022-10-13T04:38:24;10.17;;;4.73;;
20122;SDS011;10222;50.848;4.336;2022-10-13T04:40:50;10.30;;;4.67;;
20122;SDS011;10222;50.848;4.336;2022-10-13T04:43:16;11.83;;;4.50;;
20122;SDS011;10222;50.848;4.336;2022-10-13T04:45:42;11.03;;;5.30;;
20122;SDS011;10222;50.848;4.336;2022-10-13T04:48:08;8.90;;;5.00;;
20122;SDS011;10222;50.848;4.336;2022-10-13T04:50:34;8.30;;;4.57;;
20122;SDS011;10222;50.848;4.336;2022-10-13T04:53:00;10.37;;;4.67;;
20122;SDS011;10222;50.848;4.336;2022-10-13T04:55:26;9.23;;;5.17;;
20122;SDS011;10222;50.848;4.336;2022-10-13T04:57:52;8.93;;;4.40;;
20122;SDS011;10222;50.848;4.336;2022-10-13T05:00:18;12.03;;;5.03;;
20122;SDS011;10222;50.848;4.336;2022-10-13T05:02:44;6.73;;;4.07;;
20122;SDS011;10222;50.848;4.336;2022-10-13T05:05:10;11.73;;;4.33;;
20122;SDS011;10222;50.848;4.336;2022-10-13T05:07:36;9.77;;;4.33;;
20122;SDS011;10222;50.848;4.336;2022-10-13T05:10:02;11.30;;;4.77;;
20122;SDS011;10222;50.848;4.336;2022-10-13T05:12:28;9.00;;;4.50;;
20122;SDS011;10222;50.848;4.336;2022-10-13T05:14:54;9.50;;;4.13;;
20122;SDS011;10222;50.848;4.336;2022-10-13T05:17:21;10.63;;;4.23;;
20122;SDS011;10222;50.848;4.336;2022-10-13T05:19:47;7.60;;;4.63;;
20122;SDS011;10222;50.848;4.336;2022-10-13T05:22:13;8.17;;;4.00;;
20122;SDS011;10222;50.848;4.336;2022-10-13T05:24:39;7.33;;;4.40;;
20122;SDS011;10222;50.848;4.336;2022-10-13T05:27:06;7.90;;;4.37;;
20122;SDS011;10222;50.848;4.336;2022-10-13T05:29:33;12.87;;;5.77;;
20122;SDS011;10222;50.848;4.336;2022-10-13T05:31:59;7.57;;;4.20;;
20122;SDS011;10222;50.848;4.336;2022-10-13T05:34:25;12.47;;;4.57;;
20122;SDS011;10222;50.848;4.336;2022-10-13T05:36:51;8.30;;;4.07;;
20122;SDS011;10222;50.848;4.336;2022-10-13T05:39:17;9.30;;;5.20;;
20122;SDS011;10222;50.848;4.336;2022-10-13T05:41:43;8.97;;;5.07;;
20122;SDS011;10222;50.848;4.336;2022-10-13T05:44:09;9.13;;;4.83;;
20122;SDS011;10222;50.848;4.336;2022-10-13T05:46:35;8.87;;;4.63;;
20122;SDS011;10222;50.848;4.336;2022-10-13T05:49:01;8.13;;;4.23;;
20122;SDS011;10222;50.848;4.336;2022-10-13T05:51:42;7.97;;;4.60;;
20122;SDS011;10222;50.848;4.336;2022-10-13T05:54:12;12.13;;;4.53;;
20122;SDS011;10222;50.848;4.336;2022-10-13T05:56:40;8.73;;;4.43;;
20122;SDS011;10222;50.848;4.336;2022-10-13T05:59:07;9.83;;;4.17;;
20122;SDS011;10222;50.848;4.336;2022-10-13T06:01:35;11.93;;;4.10;;
20122;SDS011;10222;50.848;4.336;2022-10-13T06:04:03;9.73;;;4.70;;
20122;SDS011;10222;50.848;4.336;2022-10-13T06:06:31;9.23;;;4.57;;
20122;SDS011;10222;50.848;4.336;2022-10-13T06:08:57;9.80;;;4.90;;
20122;SDS011;10222;50.848;4.336;2022-10-13T06:11:23;10.70;;;4.77;;
20122;SDS011;10222;50.848;4.336;2022-10-13T06:13:49;8.50;;;4.53;;
20122;SDS011;10222;50.848;4.336;2022-10-13T06:16:15;7.03;;;4.37;;
20122;SDS011;10222;50.848;4.336;2022-10-13T06:18:41;9.80;;;5.13;;
20122;SDS011;10222;50.848;4.336;2022-10-13T06:21:07;10.83;;;4.97;;
20122;SDS011;10222;50.848;4.336;2022-10-13T06:23:33;7.83;;;3.83;;
20122;SDS011;10222;50.848;4.336;2022-10-13T06:25:59;9.63;;;5.50;;
20122;SDS011;10222;50.848;4.336;2022-10-13T06:28:25;10.07;;;4.50;;
20122;SDS011;10222;50.848;4.336;2022-10-13T06:30:51;10.53;;;4.90;;
20122;SDS011;10222;50.848;4.336;2022-10-13T06:33:20;7.87;;;4.23;;
20122;SDS011;10222;50.848;4.336;2022-10-13T06:35:46;8.50;;;4.70;;
20122;SDS011;10222;50.848;4.336;2022-10-13T06:38:12;9.43;;;4.33;;
20122;SDS011;10222;50.848;4.336;2022-10-13T06:40:38;7.53;;;4.73;;
20122;SDS011;10222;50.848;4.336;2022-10-13T06:43:04;10.60;;;4.87;;
20122;SDS011;10222;50.848;4.336;2022-10-13T06:45:30;14.30;;;5.53;;
20122;SDS011;10222;50.848;4.336;2022-10-13T06:47:56;10.77;;;4.70;;
20122;SDS011;10222;50.848;4.336;2022-10-13T06:50:23;9.17;;;4.23;;
20122;SDS011;10222;50.848;4.336;2022-10-13T06:52:49;10.27;;;4.57;;
20122;SDS011;10222;50.848;4.336;2022-10-13T06:55:15;8.33;;;4.73;;
20122;SDS011;10222;50.848;4.336;2022-10-13T06:57:41;13.67;;;4.30;;
20122;SDS011;10222;50.848;4.336;2022-10-13T07:00:08;6.70;;;3.73;;
20122;SDS011;10222;50.848;4.336;2022-10-13T07:02:34;9.47;;;3.90;;
20122;SDS011;10222;50.848;4.336;2022-10-13T07:05:00;7.17;;;3.33;;
20122;SDS011;10222;50.848;4.336;2022-10-13T07:07:26;6.63;;;3.30;;
20122;SDS011;10222;50.848;4.336;2022-10-13T07:09:52;9.17;;;4.37;;
20122;SDS011;10222;50.848;4.336;2022-10-13T07:12:18;6.53;;;3.87;;
20122;SDS011;10222;50.848;4.336;2022-10-13T07:14:44;8.03;;;4.07;;
20122;SDS011;10222;50.848;4.336;2022-10-13T07:17:11;8.23;;;4.17;;
20122;SDS011;10222;50.848;4.336;2022-10-13T07:19:37;8.63;;;4.87;;
20122;SDS011;10222;50.848;4.336;2022-10-13T07:22:03;6.60;;;4.13;;
20122;SDS011;10222;50.848;4.336;2022-10-13T07:24:29;10.07;;;4.20;;
20122;SDS011;10222;50.848;4.336;2022-10-13T07:26:55;9.97;;;3.90;;
20122;SDS011;10222;50.848;4.336;2022-10-13T07:29:21;9.00;;;3.40;;
20122;SDS011;10222;50.848;4.336;2022-10-13T07:31:47;8.73;;;3.50;;
20122;SDS011;10222;50.848;4.336;2022-10-13T07:34:13;7.53;;;4.60;;
20122;SDS011;10222;50.848;4.336;2022-10-13T07:36:39;8.37;;;3.97;;
20122;SDS011;10222;50.848;4.336;2022-10-13T07:39:06;9.27;;;4.00;;
20122;SDS011;10222;50.848;4.336;2022-10-13T07:41:32;6.33;;;4.17;;
20122;SDS011;10222;50.848;4.336;2022-10-13T07:43:58;5.93;;;3.23;;
20122;SDS011;10222;50.848;4.336;2022-10-13T07:46:24;7.43;;;3.70;;
20122;SDS011;10222;50.848;4.336;2022-10-13T07:48:51;9.23;;;4.43;;
20122;SDS011;10222;50.848;4.336;2022-10-13T07:51:18;9.13;;;3.30;;
20122;SDS011;10222;50.848;4.336;2022-10-13T07:53:44;7.73;;;4.23;;
20122;SDS011;10222;50.848;4.336;2022-10-13T07:56:11;7.03;;;4.10;;
20122;SDS011;10222;50.848;4.336;2022-10-13T07:58:38;5.67;;;3.73;;
20122;SDS011;10222;50.848;4.336;2022-10-13T08:01:05;9.00;;;3.47;;
20122;SDS011;10222;50.848;4.336;2022-10-13T08:03:31;6.10;;;3.60;;
20122;SDS011;10222;50.848;4.336;2022-10-13T08:05:58;7.30;;;3.67;;
20122;SDS011;10222;50.848;4.336;2022-10-13T08:08:24;10.37;;;4.63;;
20122;SDS011;10222;50.848;4.336;2022-10-13T08:10:50;9.93;;;4.33;;
20122;SDS011;10222;50.848;4.336;2022-10-13T08:13:16;4.63;;;2.87;;
20122;SDS011;10222;50.848;4.336;2022-10-13T08:15:43;6.70;;;3.63;;
20122;SDS011;10222;50.848;4.336;2022-10-13T08:18:09;5.53;;;3.60;;
20122;SDS011;10222;50.848;4.336;2022-10-13T08:20:39;7.27;;;3.33;;
20122;SDS011;10222;50.848;4.336;2022-10-13T08:23:05;7.00;;;3.33;;
20122;SDS011;10222;50.848;4.336;2022-10-13T08:25:35;6.60;;;3.50;;
20122;SDS011;10222;50.848;4.336;2022-10-13T08:28:02;7.67;;;3.70;;
20122;SDS011;10222;50.848;4.336;2022-10-13T08:30:28;5.53;;;3.00;;
20122;SDS011;10222;50.848;4.336;2022-10-13T08:32:54;7.63;;;3.47;;
20122;SDS011;10222;50.848;4.336;2022-10-13T08:35:20;5.67;;;3.17;;
20122;SDS011;10222;50.848;4.336;2022-10-13T08:37:46;5.40;;;3.23;;
20122;SDS011;10222;50.848;4.336;2022-10-13T08:40:16;7.17;;;3.90;;
20122;SDS011;10222;50.848;4.336;2022-10-13T08:42:44;8.03;;;3.53;;
20122;SDS011;10222;50.848;4.336;2022-10-13T08:45:14;8.87;;;3.60;;
20122;SDS011;10222;50.848;4.336;2022-10-13T08:47:48;5.30;;;2.87;;
20122;SDS011;10222;50.848;4.336;2022-10-13T08:50:17;5.10;;;3.07;;
20122;SDS011;10222;50.848;4.336;2022-10-13T08:52:56;7.27;;;3.53;;
20122;SDS011;10222;50.848;4.336;2022-10-13T08:55:26;8.70;;;3.43;;
20122;SDS011;10222;50.848;4.336;2022-10-13T08:57:53;3.63;;;2.83;;
20122;SDS011;10222;50.848;4.336;2022-10-13T09:00:19;4.10;;;2.47;;
20122;SDS011;10222;50.848;4.336;2022-10-13T09:02:46;5.70;;;2.97;;
20122;SDS011;10222;50.848;4.336;2022-10-13T09:05:16;9.10;;;2.60;;
20122;SDS011;10222;50.848;4.336;2022-10-13T09:07:44;5.77;;;3.23;;
20122;SDS011;10222;50.848;4.336;2022-10-13T09:10:10;7.07;;;2.83;;
20122;SDS011;10222;50.848;4.336;2022-10-13T09:12:37;5.23;;;2.87;;
20122;SDS011;10222;50.848;4.336;2022-10-13T09:15:07;9.20;;;3.70;;
20122;SDS011;10222;50.848;4.336;2022-10-13T09:17:38;7.47;;;3.20;;
20122;SDS011;10222;50.848;4.336;2022-10-13T09:22:37;5.73;;;2.67;;
20122;SDS011;10222;50.848;4.336;2022-10-13T09:33:37;5.30;;;2.93;;
20122;SDS011;10222;50.848;4.336;2022-10-13T09:35:39;5.60;;;3.00;;
20122;SDS011;10222;50.848;4.336;2022-10-13T09:38:17;4.93;;;3.00;;
20122;SDS011;10222;50.848;4.336;2022-10-13T09:40:54;6.37;;;3.40;;
20122;SDS011;10222;50.848;4.336;2022-10-13T09:45:56;7.33;;;3.43;;
20122;SDS011;10222;50.848;4.336;2022-10-13T09:48:27;5.60;;;3.40;;
20122;SDS011;10222;50.848;4.336;2022-10-13T09:50:54;5.47;;;3.70;;
20122;SDS011;10222;50.848;4.336;2022-10-13T09:53:54;8.30;;;3.13;;
20122;SDS011;10222;50.848;4.336;2022-10-13T09:56:21;8.87;;;3.90;;
20122;SDS011;10222;50.848;4.336;2022-10-13T09:58:54;6.20;;;2.90;;
20122;SDS011;10222;50.848;4.336;2022-10-13T10:01:24;8.17;;;3.70;;
20122;SDS011;10222;50.848;4.336;2022-10-13T10:03:51;5.97;;;4.23;;
20122;SDS011;10222;50.848;4.336;2022-10-13T10:06:17;6.17;;;3.53;;
20122;SDS011;10222;50.848;4.336;2022-10-13T10:11:18;6.97;;;3.27;;
20122;SDS011;10222;50.848;4.336;2022-10-13T10:13:46;7.83;;;3.73;;
20122;SDS011;10222;50.848;4.336;2022-10-13T10:16:14;5.47;;;3.27;;
20122;SDS011;10222;50.848;4.336;2022-10-13T10:18:47;6.17;;;3.53;;
20122;SDS011;10222;50.848;4.336;2022-10-13T10:21:26;5.97;;;3.40;;
20122;SDS011;10222;50.848;4.336;2022-10-13T10:23:58;9.87;;;3.60;;
20122;SDS011;10222;50.848;4.336;2022-10-13T10:29:03;6.60;;;3.77;;
20122;SDS011;10222;50.848;4.336;2022-10-13T10:31:37;7.30;;;3.63;;
20122;SDS011;10222;50.848;4.336;2022-10-13T10:34:25;5.57;;;3.20;;
20122;SDS011;10222;50.848;4.336;2022-10-13T10:36:56;5.93;;;3.70;;
20122;SDS011;10222;50.848;4.336;2022-10-13T10:42:33;8.03;;;3.47;;
20122;SDS011;10222;50.848;4.336;2022-10-13T10:45:03;8.70;;;3.90;;
20122;SDS011;10222;50.848;4.336;2022-10-13T10:47:38;9.03;;;4.00;;
20122;SDS011;10222;50.848;4.336;2022-10-13T10:50:07;5.93;;;4.07;;
20122;SDS011;10222;50.848;4.336;2022-10-13T11:00:22;7.53;;;3.67;;
20122;SDS011;10222;50.848;4.336;2022-10-13T11:05:14;6.40;;;4.50;;
20122;SDS011;10222;50.848;4.336;2022-10-13T11:15:23;9.40;;;4.77;;
20122;SDS011;10222;50.848;4.336;2022-10-13T11:17:49;10.30;;;4.47;;
20122;SDS011;10222;50.848;4.336;2022-10-13T11:22:43;10.47;;;4.53;;
20122;SDS011;10222;50.848;4.336;2022-10-13T11:27:53;10.17;;;4.80;;
20122;SDS011;10222;50.848;4.336;2022-10-13T11:35:50;9.57;;;4.47;;
20122;SDS011;10222;50.848;4.336;2022-10-13T11:38:22;8.83;;;4.63;;
20122;SDS011;10222;50.848;4.336;2022-10-13T11:46:18;8.77;;;5.10;;
20122;SDS011;10222;50.848;4.336;2022-10-13T11:56:45;8.53;;;4.37;;
20122;SDS011;10222;50.848;4.336;2022-10-13T11:59:22;11.10;;;4.97;;
20122;SDS011;10222;50.848;4.336;2022-10-13T12:01:52;11.03;;;5.70;;
20122;SDS011;10222;50.848;4.336;2022-10-13T12:04:18;9.07;;;4.07;;
20122;SDS011;10222;50.848;4.336;2022-10-13T12:06:47;8.13;;;4.13;;
20122;SDS011;10222;50.848;4.336;2022-10-13T12:09:18;10.37;;;4.60;;
20122;SDS011;10222;50.848;4.336;2022-10-13T12:11:44;8.80;;;4.60;;
20122;SDS011;10222;50.848;4.336;2022-10-13T12:14:44;8.23;;;4.53;;
20122;SDS011;10222;50.848;4.336;2022-10-13T12:17:15;9.10;;;4.83;;
20122;SDS011;10222;50.848;4.336;2022-10-13T12:19:43;8.33;;;4.43;;
20122;SDS011;10222;50.848;4.336;2022-10-13T12:22:12;7.67;;;4.67;;
20122;SDS011;10222;50.848;4.336;2022-10-13T12:24:38;9.70;;;5.10;;
20122;SDS011;10222;50.848;4.336;2022-10-13T12:27:39;8.20;;;4.60;;
20122;SDS011;10222;50.848;4.336;2022-10-13T12:29:57;8.83;;;4.97;;
20122;SDS011;10222;50.848;4.336;2022-10-13T12:32:27;9.97;;;4.97;;
20122;SDS011;10222;50.848;4.336;2022-10-13T12:34:54;10.10;;;4.70;;
20122;SDS011;10222;50.848;4.336;2022-10-13T12:37:24;9.57;;;4.77;;
20122;SDS011;10222;50.848;4.336;2022-10-13T12:39:51;10.27;;;5.20;;
20122;SDS011;10222;50.848;4.336;2022-10-13T12:42:17;7.13;;;4.73;;
20122;SDS011;10222;50.848;4.336;2022-10-13T12:44:43;13.30;;;6.30;;
20122;SDS011;10222;50.848;4.336;2022-10-13T12:50:18;10.93;;;5.87;;
20122;SDS011;10222;50.848;4.336;2022-10-13T12:52:40;11.67;;;5.33;;
20122;SDS011;10222;50.848;4.336;2022-10-13T12:55:11;10.73;;;5.43;;
20122;SDS011;10222;50.848;4.336;2022-10-13T12:57:38;9.27;;;4.93;;
20122;SDS011;10222;50.848;4.336;2022-10-13T13:05:29;13.17;;;5.77;;
20122;SDS011;10222;50.848;4.336;2022-10-13T13:07:55;9.93;;;5.13;;
20122;SDS011;10222;50.848;4.336;2022-10-13T13:10:21;8.30;;;4.93;;
20122;SDS011;10222;50.848;4.336;2022-10-13T13:12:48;8.83;;;5.27;;
20122;SDS011;10222;50.848;4.336;2022-10-13T13:17:46;9.13;;;5.57;;
20122;SDS011;10222;50.848;4.336;2022-10-13T13:20:20;7.63;;;4.57;;
20122;SDS011;10222;50.848;4.336;2022-10-13T13:22:47;8.67;;;5.20;;
20122;SDS011;10222;50.848;4.336;2022-10-13T13:25:14;7.63;;;5.17;;
20122;SDS011;10222;50.848;4.336;2022-10-13T13:27:40;9.63;;;5.00;;
20122;SDS011;10222;50.848;4.336;2022-10-13T13:30:10;11.13;;;5.27;;
20122;SDS011;10222;50.848;4.336;2022-10-13T13:32:37;8.80;;;5.37;;
20122;SDS011;10222;50.848;4.336;2022-10-13T13:35:04;11.57;;;6.13;;
20122;SDS011;10222;50.848;4.336;2022-10-13T13:39:56;11.00;;;6.03;;
20122;SDS011;10222;50.848;4.336;2022-10-13T13:42:22;11.27;;;6.43;;
20122;SDS011;10222;50.848;4.336;2022-10-13T13:44:48;12.93;;;5.83;;
20122;SDS011;10222;50.848;4.336;2022-10-13T13:47:24;10.10;;;6.27;;
20122;SDS011;10222;50.848;4.336;2022-10-13T13:49:51;11.90;;;5.90;;
20122;SDS011;10222;50.848;4.336;2022-10-13T13:52:20;13.40;;;6.33;;
20122;SDS011;10222;50.848;4.336;2022-10-13T13:54:47;10.33;;;6.17;;
20122;SDS011;10222;50.848;4.336;2022-10-13T13:57:14;10.70;;;6.47;;
20122;SDS011;10222;50.848;4.336;2022-10-13T13:59:40;14.57;;;7.57;;
20122;SDS011;10222;50.848;4.336;2022-10-13T14:02:11;16.13;;;7.57;;
20122;SDS011;10222;50.848;4.336;2022-10-13T14:04:37;12.07;;;6.77;;
20122;SDS011;10222;50.848;4.336;2022-10-13T14:07:03;13.77;;;6.90;;
20122;SDS011;10222;50.848;4.336;2022-10-13T14:09:29;11.53;;;6.50;;
20122;SDS011;10222;50.848;4.336;2022-10-13T14:11:55;9.13;;;5.93;;
20122;SDS011;10222;50.848;4.336;2022-10-13T14:14:21;9.60;;;5.77;;
20122;SDS011;10222;50.848;4.336;2022-10-13T14:16:47;11.73;;;6.23;;
20122;SDS011;10222;50.848;4.336;2022-10-13T14:19:13;10.20;;;5.73;;
20122;SDS011;10222;50.848;4.336;2022-10-13T14:21:39;10.93;;;5.87;;
20122;SDS011;10222;50.848;4.336;2022-10-13T14:24:05;9.47;;;5.60;;
20122;SDS011;10222;50.848;4.336;2022-10-13T14:26:31;7.97;;;5.80;;
20122;SDS011;10222;50.848;4.336;2022-10-13T14:28:57;8.53;;;5.40;;
20122;SDS011;10222;50.848;4.336;2022-10-13T14:31:23;9.40;;;4.97;;
20122;SDS011;10222;50.848;4.336;2022-10-13T14:33:49;7.67;;;4.67;;
20122;SDS011;10222;50.848;4.336;2022-10-13T14:36:15;10.17;;;4.47;;
20122;SDS011;10222;50.848;4.336;2022-10-13T14:38:41;7.80;;;4.87;;
20122;SDS011;10222;50.848;4.336;2022-10-13T14:41:07;9.07;;;4.27;;
20122;SDS011;10222;50.848;4.336;2022-10-13T14:43:33;8.00;;;4.67;;
20122;SDS011;10222;50.848;4.336;2022-10-13T14:46:01;7.83;;;4.27;;
20122;SDS011;10222;50.848;4.336;2022-10-13T14:48:34;6.80;;;4.40;;
20122;SDS011;10222;50.848;4.336;2022-10-13T14:51:05;5.27;;;3.70;;
20122;SDS011;10222;50.848;4.336;2022-10-13T14:53:33;7.57;;;4.43;;
20122;SDS011;10222;50.848;4.336;2022-10-13T14:55:59;7.23;;;3.83;;
20122;SDS011;10222;50.848;4.336;2022-10-13T14:58:26;7.87;;;4.00;;
20122;SDS011;10222;50.848;4.336;2022-10-13T15:00:52;10.33;;;3.33;;
20122;SDS011;10222;50.848;4.336;2022-10-13T15:03:19;7.43;;;3.50;;
20122;SDS011;10222;50.848;4.336;2022-10-13T15:05:45;4.30;;;3.23;;
20122;SDS011;10222;50.848;4.336;2022-10-13T15:08:11;9.40;;;3.80;;
20122;SDS011;10222;50.848;4.336;2022-10-13T15:10:37;4.97;;;3.20;;
20122;SDS011;10222;50.848;4.336;2022-10-13T15:13:03;8.20;;;3.30;;
20122;SDS011;10222;50.848;4.336;2022-10-13T15:15:29;5.67;;;3.80;;
20122;SDS011;10222;50.848;4.336;2022-10-13T15:17:55;4.83;;;3.20;;
20122;SDS011;10222;50.848;4.336;2022-10-13T15:20:21;6.23;;;3.37;;
20122;SDS011;10222;50.848;4.336;2022-10-13T15:22:47;7.23;;;3.43;;
20122;SDS011;10222;50.848;4.336;2022-10-13T15:25:13;4.80;;;3.00;;
20122;SDS011;10222;50.848;4.336;2022-10-13T15:27:39;4.13;;;2.80;;
20122;SDS011;10222;50.848;4.336;2022-10-13T15:30:05;5.17;;;2.77;;
20122;SDS011;10222;50.848;4.336;2022-10-13T15:32:32;5.13;;;2.97;;
20122;SDS011;10222;50.848;4.336;2022-10-13T15:34:58;6.07;;;3.43;;
20122;SDS011;10222;50.848;4.336;2022-10-13T15:37:25;4.57;;;2.33;;
20122;SDS011;10222;50.848;4.336;2022-10-13T15:39:51;4.20;;;2.50;;
20122;SDS011;10222;50.848;4.336;2022-10-13T15:42:17;5.17;;;3.13;;
20122;SDS011;10222;50.848;4.336;2022-10-13T15:44:43;3.17;;;2.57;;
20122;SDS011;10222;50.848;4.336;2022-10-13T15:47:09;6.00;;;2.83;;
20122;SDS011;10222;50.848;4.336;2022-10-13T15:49:35;6.47;;;2.80;;
20122;SDS011;10222;50.848;4.336;2022-10-13T15:52:01;4.50;;;2.57;;
20122;SDS011;10222;50.848;4.336;2022-10-13T15:54:27;4.93;;;2.60;;
20122;SDS011;10222;50.848;4.336;2022-10-13T15:56:53;5.97;;;2.80;;
20122;SDS011;10222;50.848;4.336;2022-10-13T15:59:19;4.97;;;2.80;;
20122;SDS011;10222;50.848;4.336;2022-10-13T16:01:45;5.33;;;2.57;;
20122;SDS011;10222;50.848;4.336;2022-10-13T16:04:11;3.67;;;2.80;;
20122;SDS011;10222;50.848;4.336;2022-10-13T16:06:38;7.43;;;2.90;;
20122;SDS011;10222;50.848;4.336;2022-10-13T16:09:05;6.30;;;2.63;;
20122;SDS011;10222;50.848;4.336;2022-10-13T16:11:31;3.33;;;2.37;;
20122;SDS011;10222;50.848;4.336;2022-10-13T16:13:58;2.80;;;2.23;;
20122;SDS011;10222;50.848;4.336;2022-10-13T16:16:24;6.77;;;4.23;;
20122;SDS011;10222;50.848;4.336;2022-10-13T16:18:51;5.80;;;2.77;;
20122;SDS011;10222;50.848;4.336;2022-10-13T16:21:20;8.93;;;3.20;;
20122;SDS011;10222;50.848;4.336;2022-10-13T16:23:46;4.27;;;2.70;;
20122;SDS011;10222;50.848;4.336;2022-10-13T16:26:12;6.77;;;2.90;;
20122;SDS011;10222;50.848;4.336;2022-10-13T16:28:38;4.40;;;3.03;;